createdAt,value
2022-07-26T00:00:51.995Z,100995.88
2022-07-26T00:03:19.214Z,100986.34
2022-07-26T00:05:46.702Z,100991.69
2022-07-26T00:08:13.848Z,100977.97
2022-07-26T00:10:49.185Z,100978.91
2022-07-26T00:13:19.832Z,100990.34
2022-07-26T00:15:49.184Z,100983.59
2022-07-26T00:18:17.844Z,100997.13
2022-07-26T00:20:46.037Z,100980.72
2022-07-26T00:23:14.575Z,100989.78
2022-07-26T00:25:42.299Z,100996.72
2022-07-26T00:28:09.299Z,100981.03
2022-07-26T00:30:36.748Z,100980.34
2022-07-26T00:33:03.955Z,101001.50
2022-07-26T00:35:31.589Z,100996.66
2022-07-26T00:37:59.068Z,101005.31
2022-07-26T00:40:26.361Z,100997.00
2022-07-26T00:42:53.715Z,101011.78
2022-07-26T00:45:20.801Z,101008.44
2022-07-26T00:47:47.977Z,101002.63
2022-07-26T00:50:19.953Z,100996.78
2022-07-26T00:52:50.015Z,100999.47
2022-07-26T00:55:18.417Z,100998.69
2022-07-26T00:57:46.791Z,101004.19
2022-07-26T01:00:19.298Z,100993.91
2022-07-26T01:02:46.578Z,101000.28
2022-07-26T01:05:14.935Z,101011.63
2022-07-26T01:07:43.676Z,101011.81
2022-07-26T01:10:12.881Z,101005.78
2022-07-26T01:13:00.170Z,101006.00
2022-07-26T01:15:27.465Z,100997.31
2022-07-26T01:17:54.631Z,101010.53
2022-07-26T01:20:22.082Z,100997.56
2022-07-26T01:22:49.217Z,100995.75
2022-07-26T01:25:16.443Z,101012.59
2022-07-26T01:27:44.025Z,100998.63
2022-07-26T01:30:12.785Z,100996.91
2022-07-26T01:32:40.213Z,101001.28
2022-07-26T01:35:08.389Z,101005.00
2022-07-26T01:37:35.666Z,100999.16
2022-07-26T01:40:04.141Z,100993.84
2022-07-26T01:42:31.930Z,101004.28
2022-07-26T01:44:58.967Z,101002.78
2022-07-26T01:47:26.002Z,101000.13
2022-07-26T01:49:53.164Z,101002.09
2022-07-26T01:52:20.230Z,101009.06
2022-07-26T01:54:47.233Z,101010.00
2022-07-26T01:57:14.423Z,101007.41
2022-07-26T01:59:41.411Z,101006.56
2022-07-26T02:02:08.625Z,101002.25
2022-07-26T02:04:58.819Z,101003.91
2022-07-26T02:07:38.058Z,101016.44
2022-07-26T02:10:08.599Z,101014.72
2022-07-26T02:12:39.755Z,101013.00
2022-07-26T02:15:09.362Z,101007.09
2022-07-26T02:17:40.094Z,101003.88
2022-07-26T02:20:08.965Z,101017.75
2022-07-26T02:22:36.112Z,101019.84
2022-07-26T02:25:05.439Z,101016.41
2022-07-26T02:27:34.369Z,101021.75
2022-07-26T02:30:02.261Z,101013.13
2022-07-26T02:32:29.330Z,101012.19
2022-07-26T02:34:56.331Z,101015.78
2022-07-26T02:37:23.308Z,101012.28
2022-07-26T02:39:50.339Z,101009.69
2022-07-26T02:42:36.327Z,101015.13
2022-07-26T02:45:03.995Z,101000.25
2022-07-26T02:47:52.986Z,101009.88
2022-07-26T02:50:22.977Z,101009.09
2022-07-26T02:52:51.816Z,100997.81
2022-07-26T02:55:24.182Z,101012.97
2022-07-26T02:57:52.242Z,101015.88
2022-07-26T03:00:25.000Z,101021.38
2022-07-26T03:02:53.123Z,101019.56
2022-07-26T03:05:21.947Z,101009.00
2022-07-26T03:07:49.426Z,101016.91
2022-07-26T03:10:16.997Z,101023.09
2022-07-26T03:12:44.264Z,101025.75
2022-07-26T03:15:11.970Z,101027.63
2022-07-26T03:17:39.439Z,101019.47
2022-07-26T03:20:07.275Z,101030.22
2022-07-26T03:22:34.454Z,101025.16
2022-07-26T03:25:01.613Z,101024.97
2022-07-26T03:27:28.694Z,101027.75
2022-07-26T03:29:55.743Z,101028.41
2022-07-26T03:32:22.906Z,101038.13
2022-07-26T03:34:50.042Z,101028.59
2022-07-26T03:37:17.561Z,101040.78
2022-07-26T03:39:45.087Z,101042.50
2022-07-26T03:42:12.190Z,101044.22
2022-07-26T03:44:39.221Z,101037.19
2022-07-26T03:47:06.402Z,101035.47
2022-07-26T03:49:33.494Z,101028.41
2022-07-26T03:52:00.703Z,101032.03
2022-07-26T03:54:27.906Z,101037.97
2022-07-26T03:56:55.034Z,101038.47
2022-07-26T03:59:24.107Z,101025.16
2022-07-26T04:01:51.933Z,101030.56
2022-07-26T04:04:19.400Z,101026.94
2022-07-26T04:06:52.252Z,101029.47
2022-07-26T04:09:20.029Z,101035.75
2022-07-26T04:11:48.607Z,101034.88
2022-07-26T04:14:16.504Z,101043.66
2022-07-26T04:16:44.052Z,101038.41
2022-07-26T04:19:11.210Z,101047.47
2022-07-26T04:21:38.315Z,101043.00
2022-07-26T04:24:05.904Z,101045.53
2022-07-26T04:26:33.275Z,101035.66
2022-07-26T04:29:00.374Z,101034.81
2022-07-26T04:31:27.625Z,101047.00
2022-07-26T04:34:01.907Z,101048.72
2022-07-26T04:36:28.924Z,101050.25
2022-07-26T04:38:55.904Z,101052.06
2022-07-26T04:41:23.161Z,101062.66
2022-07-26T04:43:50.206Z,101053.72
2022-07-26T04:46:18.375Z,101052.56
2022-07-26T04:48:45.507Z,101059.88
2022-07-26T04:51:12.542Z,101053.84
2022-07-26T04:53:39.525Z,101055.19
2022-07-26T04:56:06.982Z,101052.16
2022-07-26T04:58:34.082Z,101056.19
2022-07-26T05:01:10.309Z,101048.28
2022-07-26T05:03:39.012Z,101053.44
2022-07-26T05:06:06.469Z,101055.31
2022-07-26T05:08:33.544Z,101056.97
2022-07-26T05:11:00.675Z,101045.69
2022-07-26T05:13:30.603Z,101040.34
2022-07-26T05:15:59.743Z,101046.38
2022-07-26T05:18:29.278Z,101040.41
2022-07-26T05:20:58.659Z,101045.88
2022-07-26T05:23:25.884Z,101044.88
2022-07-26T05:25:52.938Z,101039.94
2022-07-26T05:28:20.018Z,101044.78
2022-07-26T05:30:47.452Z,101048.31
2022-07-26T05:33:16.518Z,101048.31
2022-07-26T05:35:43.961Z,101046.78
2022-07-26T05:38:11.114Z,101049.66
2022-07-26T05:40:40.608Z,101050.59
2022-07-26T05:43:07.676Z,101051.53
2022-07-26T05:45:34.891Z,101057.75
2022-07-26T05:48:02.193Z,101048.09
2022-07-26T05:50:33.051Z,101050.59
2022-07-26T05:53:00.151Z,101043.16
2022-07-26T05:55:27.209Z,101045.06
2022-07-26T05:57:54.211Z,101056.69
2022-07-26T06:00:21.469Z,101039.72
2022-07-26T06:02:48.492Z,101039.84
2022-07-26T06:05:15.955Z,101043.34
2022-07-26T06:07:43.044Z,101051.56
2022-07-26T06:10:10.450Z,101052.88
2022-07-26T06:12:37.573Z,101055.38
2022-07-26T06:15:15.059Z,101061.84
2022-07-26T06:17:43.502Z,101059.00
2022-07-26T06:20:11.156Z,101060.22
2022-07-26T06:22:38.214Z,101063.19
2022-07-26T06:25:06.154Z,101054.81
2022-07-26T06:27:33.286Z,101056.91
2022-07-26T06:30:00.543Z,101058.03
2022-07-26T06:32:27.628Z,101059.31
2022-07-26T06:34:54.806Z,101057.22
2022-07-26T06:37:21.908Z,101059.47
2022-07-26T06:39:48.918Z,101061.47
2022-07-26T06:42:15.986Z,101054.50
2022-07-26T06:44:43.100Z,101066.84
2022-07-26T06:47:10.210Z,101045.28
2022-07-26T06:49:37.332Z,101050.72
2022-07-26T06:52:04.902Z,101060.72
2022-07-26T06:54:32.020Z,101053.47
2022-07-26T06:56:59.007Z,101045.91
2022-07-26T06:59:26.222Z,101054.69
2022-07-26T07:01:59.417Z,101046.16
2022-07-26T07:04:29.985Z,101066.50
2022-07-26T07:07:03.318Z,101053.78
2022-07-26T07:09:33.948Z,101062.88
2022-07-26T07:12:09.376Z,101073.81
2022-07-26T07:14:38.151Z,101076.81
2022-07-26T07:17:11.152Z,101076.81
2022-07-26T07:19:40.232Z,101082.78
2022-07-26T07:22:11.642Z,101039.16
2022-07-26T07:24:39.558Z,101085.25
2022-07-26T07:27:07.350Z,101083.50
2022-07-26T07:29:34.525Z,101092.47
2022-07-26T07:32:03.437Z,101095.34
2022-07-26T07:34:30.693Z,101094.19
2022-07-26T07:36:57.919Z,101084.53
2022-07-26T07:39:27.306Z,101096.44
2022-07-26T07:42:02.069Z,101089.13
2022-07-26T07:44:29.153Z,101085.69
2022-07-26T07:46:56.738Z,101102.84
2022-07-26T07:49:24.087Z,101104.47
2022-07-26T07:51:51.137Z,101108.19
2022-07-26T07:54:18.456Z,101099.84
2022-07-26T07:56:45.469Z,101110.13
2022-07-26T07:59:13.006Z,101110.41
2022-07-26T08:01:41.092Z,101113.97
2022-07-26T08:04:09.881Z,101110.75
2022-07-26T08:06:37.121Z,101152.03
2022-07-26T08:09:05.383Z,101163.06
2022-07-26T08:11:34.400Z,101175.97
2022-07-26T08:14:02.193Z,101168.22
2022-07-26T08:16:29.728Z,101175.88
2022-07-26T08:18:58.462Z,101170.16
2022-07-26T08:21:29.399Z,101166.72
2022-07-26T08:23:58.020Z,101170.31
2022-07-26T08:26:25.651Z,101188.66
2022-07-26T08:29:09.821Z,101194.19
2022-07-26T08:31:37.436Z,101182.22
2022-07-26T08:34:04.564Z,101197.91
2022-07-26T08:36:32.994Z,101195.72
2022-07-26T08:39:02.079Z,101198.25
2022-07-26T08:41:30.638Z,101209.19
2022-07-26T08:44:09.706Z,101210.94
2022-07-26T08:49:08.213Z,101228.16
2022-07-26T08:51:43.914Z,101231.81
2022-07-26T08:54:15.293Z,101240.91
2022-07-26T08:56:51.800Z,101245.66
2022-07-26T08:59:22.288Z,101258.69
2022-07-26T09:02:00.899Z,101256.88
2022-07-26T09:04:43.828Z,101269.66
2022-07-26T09:07:19.415Z,101264.16
2022-07-26T09:10:00.683Z,101268.16
2022-07-26T09:12:30.996Z,101283.91
2022-07-26T09:15:00.990Z,101279.25
2022-07-26T09:17:46.826Z,101285.53
2022-07-26T09:20:29.495Z,101299.81
2022-07-26T09:23:10.268Z,101290.19
2022-07-26T09:25:44.469Z,101295.66
2022-07-26T09:28:29.669Z,101300.81
2022-07-26T09:31:02.004Z,101302.28
2022-07-26T09:33:49.070Z,101311.56
2022-07-26T09:36:18.406Z,101308.91
2022-07-26T09:38:50.572Z,101316.03
2022-07-26T09:41:27.936Z,101320.19
2022-07-26T09:44:03.073Z,101304.63
2022-07-26T09:46:32.474Z,101332.56
2022-07-26T09:49:21.064Z,101332.91
2022-07-26T09:51:51.729Z,101329.53
2022-07-26T09:54:33.937Z,101322.47
2022-07-26T09:57:02.094Z,101332.63
2022-07-26T09:59:30.055Z,101332.53
2022-07-26T10:02:00.491Z,101334.81
2022-07-26T10:04:28.042Z,101337.03
2022-07-26T10:06:58.255Z,101348.50
2022-07-26T10:09:32.979Z,101353.22
2022-07-26T10:12:09.060Z,101357.53
2022-07-26T10:14:51.443Z,101364.91
2022-07-26T10:17:35.174Z,101369.31
2022-07-26T10:20:09.331Z,101371.78
2022-07-26T10:22:47.418Z,101364.25
2022-07-26T10:25:17.541Z,101373.78
2022-07-26T10:27:51.236Z,101376.78
2022-07-26T10:30:18.350Z,101374.63
2022-07-26T10:32:52.648Z,101392.81
2022-07-26T10:35:39.416Z,101393.44
2022-07-26T10:38:14.286Z,101388.78
2022-07-26T10:41:01.894Z,101384.69
2022-07-26T10:43:45.768Z,101398.31
2022-07-26T10:46:19.095Z,101397.81
2022-07-26T10:49:01.620Z,101391.09
2022-07-26T10:51:36.205Z,101399.69
2022-07-26T10:54:15.002Z,101411.72
2022-07-26T10:56:42.331Z,101404.25
2022-07-26T10:59:09.511Z,101399.34
2022-07-26T11:01:43.104Z,101408.03
2022-07-26T11:04:23.563Z,101412.41
2022-07-26T11:06:50.651Z,101400.28
2022-07-26T11:09:21.292Z,101408.13
2022-07-26T11:11:49.042Z,101427.19
2022-07-26T11:14:18.389Z,101429.66
2022-07-26T11:16:48.896Z,101429.06
2022-07-26T11:19:23.341Z,101419.75
2022-07-26T11:22:00.566Z,101411.75
2022-07-26T11:24:29.338Z,101414.94
2022-07-26T11:27:02.790Z,101438.25
2022-07-26T11:29:39.122Z,101435.81
2022-07-26T11:32:25.289Z,101432.31
2022-07-26T11:35:05.015Z,101429.91
2022-07-26T11:37:39.549Z,101444.44
2022-07-26T11:40:07.348Z,101434.94
2022-07-26T11:42:34.546Z,101428.91
2022-07-26T11:45:01.620Z,101445.13
2022-07-26T11:47:28.904Z,101436.19
2022-07-26T11:50:17.006Z,101438.59
2022-07-26T11:52:45.990Z,101438.53
2022-07-26T11:55:13.524Z,101440.94
2022-07-26T11:57:40.807Z,101441.72
2022-07-26T12:00:08.971Z,101439.03
2022-07-26T12:02:36.143Z,101448.28
2022-07-26T12:05:33.424Z,101446.38
2022-07-26T12:08:04.925Z,101434.50
2022-07-26T12:10:32.607Z,101446.38
2022-07-26T12:13:15.876Z,101441.56
2022-07-26T12:15:50.305Z,101463.78
2022-07-26T12:18:35.266Z,101449.81
2022-07-26T12:21:09.645Z,101441.00
2022-07-26T12:23:49.603Z,101445.75
2022-07-26T12:26:27.706Z,101446.69
2022-07-26T12:28:57.238Z,101453.91
2022-07-26T12:31:34.116Z,101453.19
2022-07-26T12:34:01.870Z,101442.66
2022-07-26T12:36:30.318Z,101434.53
2022-07-26T12:39:00.076Z,101448.44
2022-07-26T12:41:40.579Z,101448.44
2022-07-26T12:44:12.377Z,101450.00
2022-07-26T12:46:40.331Z,101455.94
2022-07-26T12:49:07.466Z,101454.28
2022-07-26T12:51:34.830Z,101447.66
2022-07-26T12:54:03.420Z,101437.41
2022-07-26T12:56:30.447Z,101457.81
2022-07-26T12:59:01.528Z,101471.75
2022-07-26T13:01:31.349Z,101449.28
2022-07-26T13:03:58.665Z,101460.25
2022-07-26T13:06:25.737Z,101464.28
2022-07-26T13:08:53.773Z,101445.59
2022-07-26T13:11:21.087Z,101440.44
2022-07-26T13:13:49.426Z,101449.38
2022-07-26T13:16:16.498Z,101457.03
2022-07-26T13:18:43.727Z,101462.78
2022-07-26T13:21:11.929Z,101472.16
2022-07-26T13:23:39.231Z,101458.88
2022-07-26T13:26:09.258Z,101466.72
2022-07-26T13:28:37.038Z,101466.47
2022-07-26T13:31:04.278Z,101452.53
2022-07-26T13:33:33.193Z,101450.97
2022-07-26T13:36:00.633Z,101471.81
2022-07-26T13:38:28.414Z,101473.75
2022-07-26T13:40:56.498Z,101478.56
2022-07-26T13:43:24.269Z,101478.72
2022-07-26T13:45:51.561Z,101473.28
2022-07-26T13:48:18.730Z,101467.03
2022-07-26T13:50:45.846Z,101467.63
2022-07-26T13:53:13.250Z,101475.53
2022-07-26T13:55:40.291Z,101466.53
2022-07-26T13:58:10.422Z,101478.41
2022-07-26T14:00:40.376Z,101483.25
2022-07-26T14:03:08.236Z,101480.13
2022-07-26T14:05:35.618Z,101477.88
2022-07-26T14:08:03.070Z,101487.41
2022-07-26T14:10:30.970Z,101481.53
2022-07-26T14:12:58.812Z,101482.81
2022-07-26T14:15:26.035Z,101492.53
2022-07-26T14:17:53.330Z,101485.06
2022-07-26T14:20:21.855Z,101478.63
2022-07-26T14:22:53.556Z,101493.59
2022-07-26T14:25:25.839Z,101484.53
2022-07-26T14:27:54.858Z,101481.63
2022-07-26T14:30:22.701Z,101488.84
2022-07-26T14:32:50.418Z,101487.59
2022-07-26T14:35:17.917Z,101479.34
2022-07-26T14:37:46.020Z,101498.47
2022-07-26T14:40:17.700Z,101487.13
2022-07-26T14:42:45.996Z,101486.94
2022-07-26T14:45:14.579Z,101490.16
2022-07-26T14:47:42.385Z,101502.16
2022-07-26T14:50:15.672Z,101501.25
2022-07-26T14:52:48.271Z,101499.19
2022-07-26T14:55:21.695Z,101498.44
2022-07-26T14:57:52.118Z,101507.13
2022-07-26T15:00:19.266Z,101500.91
2022-07-26T15:02:48.580Z,101510.56
2022-07-26T15:05:17.151Z,101516.78
2022-07-26T15:07:45.158Z,101512.44
2022-07-26T15:10:14.527Z,101519.84
2022-07-26T15:12:42.885Z,101518.13
2022-07-26T15:15:11.153Z,101511.78
2022-07-26T15:17:38.377Z,101528.31
2022-07-26T15:20:06.575Z,101527.13
2022-07-26T15:22:33.708Z,101512.91
2022-07-26T15:25:00.726Z,101526.44
2022-07-26T15:27:27.945Z,101511.78
2022-07-26T15:29:59.505Z,101529.38
2022-07-26T15:32:30.397Z,101534.97
2022-07-26T15:34:57.517Z,101525.66
2022-07-26T15:37:24.852Z,101527.13
2022-07-26T15:39:52.228Z,101531.13
2022-07-26T15:42:19.631Z,101527.59
2022-07-26T15:44:50.041Z,101521.00
2022-07-26T15:47:52.418Z,101520.63
2022-07-26T15:50:09.897Z,101541.47
2022-07-26T15:52:42.021Z,101528.72
2022-07-26T15:55:11.622Z,101513.47
2022-07-26T15:57:40.207Z,101536.00
2022-07-26T16:00:11.579Z,101533.41
2022-07-26T16:02:40.516Z,101519.13
2022-07-26T16:05:09.048Z,101534.03
2022-07-26T16:07:36.437Z,101518.97
2022-07-26T16:10:04.715Z,101513.78
2022-07-26T16:12:31.714Z,101513.25
2022-07-26T16:14:58.726Z,101522.91
2022-07-26T16:17:25.775Z,101526.66
2022-07-26T16:19:53.434Z,101528.06
2022-07-26T16:22:20.742Z,101522.72
2022-07-26T16:24:47.992Z,101520.31
2022-07-26T16:27:15.067Z,101521.47
2022-07-26T16:29:42.100Z,101528.00
2022-07-26T16:32:11.738Z,101522.53
2022-07-26T16:34:39.063Z,101539.75
2022-07-26T16:37:06.205Z,101531.31
2022-07-26T16:39:33.316Z,101528.06
2022-07-26T16:42:06.793Z,101539.53
2022-07-26T16:44:36.276Z,101541.72
2022-07-26T16:47:04.561Z,101543.72
2022-07-26T16:49:31.856Z,101542.19
2022-07-26T16:51:59.154Z,101535.88
2022-07-26T16:54:26.612Z,101539.34
2022-07-26T16:56:53.723Z,101528.50
2022-07-26T16:59:20.988Z,101546.06
2022-07-26T17:01:48.217Z,101560.63
2022-07-26T17:04:16.578Z,101552.91
2022-07-26T17:07:01.821Z,101559.00
2022-07-26T17:09:31.712Z,101555.84
2022-07-26T17:12:02.899Z,101547.38
2022-07-26T17:14:33.171Z,101553.50
2022-07-26T17:17:00.328Z,101548.88
2022-07-26T17:19:27.785Z,101557.59
2022-07-26T17:21:54.859Z,101567.16
2022-07-26T17:24:21.893Z,101559.00
2022-07-26T17:26:48.949Z,101558.25
2022-07-26T17:29:16.072Z,101570.69
2022-07-26T17:31:43.184Z,101565.50
2022-07-26T17:34:10.738Z,101573.94
2022-07-26T17:36:38.350Z,101561.00
2022-07-26T17:39:05.623Z,101552.66
2022-07-26T17:41:33.611Z,101560.63
2022-07-26T17:44:02.982Z,101561.34
2022-07-26T17:46:33.937Z,101576.44
2022-07-26T17:49:01.396Z,101564.22
2022-07-26T17:51:28.537Z,101557.16
2022-07-26T17:53:55.597Z,101567.03
2022-07-26T17:56:22.605Z,101570.84
2022-07-26T17:58:49.633Z,101568.56
2022-07-26T18:01:16.984Z,101566.47
2022-07-26T18:03:44.302Z,101562.78
2022-07-26T18:06:11.680Z,101559.78
2022-07-26T18:08:38.863Z,101560.91
2022-07-26T18:11:07.980Z,101576.88
2022-07-26T18:13:35.556Z,101566.53
2022-07-26T18:16:05.926Z,101569.47
2022-07-26T18:18:33.591Z,101575.72
2022-07-26T18:21:00.659Z,101575.88
2022-07-26T18:23:27.689Z,101568.94
2022-07-26T18:25:54.823Z,101570.97
2022-07-26T18:28:21.817Z,101579.00
2022-07-26T18:30:48.890Z,101573.97
2022-07-26T18:33:16.513Z,101582.03
2022-07-26T18:35:43.891Z,101576.84
2022-07-26T18:38:11.042Z,101562.69
2022-07-26T18:40:38.158Z,101567.06
2022-07-26T18:43:05.250Z,101571.38
2022-07-26T18:45:32.395Z,101568.00
2022-07-26T18:47:59.822Z,101571.69
2022-07-26T18:50:27.111Z,101585.72
2022-07-26T18:52:59.314Z,101561.38
2022-07-26T18:55:26.487Z,101589.22
2022-07-26T18:57:53.644Z,101583.75
2022-07-26T19:00:23.016Z,101583.63
2022-07-26T19:02:52.078Z,101581.16
2022-07-26T19:05:20.620Z,101589.03
2022-07-26T19:07:47.694Z,101596.25
2022-07-26T19:10:15.818Z,101593.91
2022-07-26T19:12:45.280Z,101593.47
2022-07-26T19:15:16.152Z,101601.63
2022-07-26T19:17:44.823Z,101603.66
2022-07-26T19:20:13.635Z,101609.09
2022-07-26T19:22:41.648Z,101597.97
2022-07-26T19:25:10.483Z,101608.63
2022-07-26T19:27:38.252Z,101612.34
2022-07-26T19:30:08.374Z,101616.00
2022-07-26T19:32:38.921Z,101610.88
2022-07-26T19:35:07.881Z,101619.78
2022-07-26T19:37:35.495Z,101612.94
2022-07-26T19:40:04.180Z,101617.44
2022-07-26T19:42:32.452Z,101609.78
2022-07-26T19:45:00.432Z,101618.69
2022-07-26T19:47:29.695Z,101622.47
2022-07-26T19:49:57.494Z,101619.06
2022-07-26T19:52:25.027Z,101627.16
2022-07-26T19:54:52.342Z,101624.66
2022-07-26T19:57:19.540Z,101621.19
2022-07-26T19:59:47.421Z,101624.78
2022-07-26T20:02:14.932Z,101622.41
2022-07-26T20:04:45.923Z,101626.84
2022-07-26T20:07:19.518Z,101628.69
2022-07-26T20:09:49.978Z,101626.09
2022-07-26T20:12:19.287Z,101628.81
2022-07-26T20:14:47.357Z,101626.19
2022-07-26T20:17:14.839Z,101629.78
2022-07-26T20:19:42.464Z,101628.00
2022-07-26T20:22:09.787Z,101629.78
2022-07-26T20:24:38.212Z,101629.78
2022-07-26T20:27:07.947Z,101632.53
2022-07-26T20:29:35.584Z,101632.63
2022-07-26T20:32:03.222Z,101632.75
2022-07-26T20:34:30.401Z,101620.53
2022-07-26T20:36:57.534Z,101628.59
2022-07-26T20:39:26.195Z,101627.06
2022-07-26T20:41:53.851Z,101630.66
2022-07-26T20:44:27.943Z,101632.53
2022-07-26T20:46:55.750Z,101621.25
2022-07-26T20:49:22.894Z,101629.34
2022-07-26T20:51:50.030Z,101628.63
2022-07-26T20:54:17.285Z,101631.47
2022-07-26T20:56:44.344Z,101636.88
2022-07-26T20:59:11.716Z,101634.34
2022-07-26T21:01:39.029Z,101635.28
2022-07-26T21:04:14.495Z,101636.13
2022-07-26T21:06:41.982Z,101635.34
2022-07-26T21:09:09.795Z,101644.22
2022-07-26T21:11:38.863Z,101645.19
2022-07-26T21:14:06.265Z,101644.34
2022-07-26T21:16:33.356Z,101647.00
2022-07-26T21:19:02.012Z,101654.09
2022-07-26T21:21:29.022Z,101653.28
2022-07-26T21:23:56.013Z,101657.72
2022-07-26T21:26:23.102Z,101657.72
2022-07-26T21:28:50.080Z,101659.59
2022-07-26T21:31:17.241Z,101652.63
2022-07-26T21:33:44.968Z,101664.22
2022-07-26T21:36:12.063Z,101663.47
2022-07-26T21:38:39.151Z,101663.63
2022-07-26T21:41:06.165Z,101669.03
2022-07-26T21:43:33.225Z,101665.69
2022-07-26T21:46:00.804Z,101671.03
2022-07-26T21:48:27.947Z,101673.75
2022-07-26T21:50:54.946Z,101675.72
2022-07-26T21:53:21.999Z,101666.06
2022-07-26T21:55:48.961Z,101675.75
2022-07-26T21:58:16.026Z,101679.38
2022-07-26T22:00:43.673Z,101677.53
2022-07-26T22:03:11.784Z,101673.09
2022-07-26T22:05:38.943Z,101678.41
2022-07-26T22:08:12.278Z,101671.28
2022-07-26T22:10:44.747Z,101665.97
2022-07-26T22:13:13.624Z,101675.72
2022-07-26T22:15:41.095Z,101675.66
2022-07-26T22:18:09.790Z,101673.09
2022-07-26T22:20:37.288Z,101667.78
2022-07-26T22:23:08.012Z,101675.75
2022-07-26T22:25:38.175Z,101674.94
2022-07-26T22:28:07.937Z,101677.69
2022-07-26T22:30:36.133Z,101677.81
2022-07-26T22:33:06.420Z,101673.53
2022-07-26T22:35:36.485Z,101677.09
2022-07-26T22:38:11.450Z,101684.19
2022-07-26T22:40:40.307Z,101678.94
2022-07-26T22:43:08.787Z,101677.22
2022-07-26T22:45:37.317Z,101678.09
2022-07-26T22:48:06.072Z,101673.75
2022-07-26T22:50:33.437Z,101673.69
2022-07-26T22:53:01.058Z,101683.44
2022-07-26T22:55:29.047Z,101686.09
2022-07-26T22:57:56.354Z,101681.72
2022-07-26T23:00:24.497Z,101682.63
2022-07-26T23:02:52.034Z,101677.31
2022-07-26T23:05:20.206Z,101688.78
2022-07-26T23:07:48.594Z,101689.66
2022-07-26T23:10:17.405Z,101683.50
2022-07-26T23:12:44.754Z,101679.06
2022-07-26T23:15:12.885Z,101682.53
2022-07-26T23:17:40.893Z,101681.56
2022-07-26T23:20:10.082Z,101695.66
2022-07-26T23:22:38.375Z,101689.53
2022-07-26T23:25:06.745Z,101684.19
2022-07-26T23:27:36.587Z,101685.97
2022-07-26T23:30:04.269Z,101622.53
2022-07-26T23:32:33.820Z,101682.41
2022-07-26T23:35:02.368Z,101674.44
2022-07-26T23:37:29.905Z,101670.06
2022-07-26T23:39:56.889Z,101674.44
2022-07-26T23:42:23.870Z,101674.44
2022-07-26T23:44:50.884Z,101676.13
2022-07-26T23:47:17.936Z,101664.69
2022-07-26T23:49:44.980Z,101662.91
2022-07-26T23:52:11.954Z,101666.38
2022-07-26T23:54:39.047Z,101657.50
2022-07-26T23:57:06.158Z,101659.34
2022-07-26T23:59:33.170Z,101652.25
